Time;durP1;ratioP1;P1;durP2;ratioP2;P2;SDS_P1;SDS_P2;PMS_P1;PMS_P2;Temp;Humidity;BMP_temperature;BMP_pressure;BME280_temperature;BME280_humidity;BME280_pressure;Samples;Min_cycle;Max_cycle;Signal;HPM_P1;HPM_P2
2023/01/28 00:02:22;;;;;;;1.80;1.27;;;;;;;;;;5030199;28;20413;-80
2023/01/28 00:04:48;;;;;;;9.55;2.88;;;;;;;;;;5026966;28;20021;-80
2023/01/28 00:07:14;;;;;;;4.05;3.17;;;;;;;;;;5028791;28;20017;-79
2023/01/28 00:09:40;;;;;;;3.47;2.47;;;;;;;;;;5024652;28;20030;-81
2023/01/28 00:12:06;;;;;;;7.75;2.53;;;;;;;;;;5019419;28;20025;-80
2023/01/28 00:14:32;;;;;;;4.72;2.55;;;;;;;;;;5032239;28;20509;-81
2023/01/28 00:16:58;;;;;;;11.10;4.45;;;;;;;;;;5024348;28;20032;-79
2023/01/28 00:19:24;;;;;;;9.95;4.70;;;;;;;;;;5025586;28;20063;-78
2023/01/28 00:21:50;;;;;;;5.55;3.17;;;;;;;;;;5020812;28;20026;-79
2023/01/28 00:24:16;;;;;;;4.15;2.45;;;;;;;;;;5023032;28;20067;-78
2023/01/28 00:26:42;;;;;;;4.28;2.05;;;;;;;;;;5026975;28;20029;-80
2023/01/28 00:29:08;;;;;;;2.67;1.67;;;;;;;;;;5028210;28;20564;-79
2023/01/28 00:31:34;;;;;;;3.40;1.15;;;;;;;;;;5019667;28;20026;-78
2023/01/28 00:34:00;;;;;;;4.22;1.73;;;;;;;;;;5017718;28;20534;-77
2023/01/28 00:36:27;;;;;;;2.97;2.45;;;;;;;;;;5027751;28;20041;-80
2023/01/28 00:38:54;;;;;;;2.70;1.60;;;;;;;;;;5025200;28;20507;-78
2023/01/28 00:41:21;;;;;;;4.95;2.17;;;;;;;;;;5019980;28;20049;-81
2023/01/28 00:43:47;;;;;;;4.38;2.55;;;;;;;;;;5027984;28;20030;-80
2023/01/28 00:46:13;;;;;;;6.28;1.77;;;;;;;;;;5027110;28;20037;-81
2023/01/28 00:48:40;;;;;;;7.72;1.77;;;;;;;;;;5021287;28;20060;-80
2023/01/28 00:51:07;;;;;;;4.38;2.45;;;1.50;99.90;;;;;;5026018;28;20061;-80
2023/01/28 00:53:35;;;;;;;3.33;2.00;;;;;;;;;;5023382;28;20116;-80
2023/01/28 00:56:01;;;;;;;3.38;1.05;;;;;;;;;;5026405;28;20037;-80
2023/01/28 00:58:27;;;;;;;7.60;1.95;;;;;;;;;;5025061;28;20037;-78
2023/01/28 01:00:53;;;;;;;4.47;2.53;;;;;;;;;;5024892;28;20581;-78
2023/01/28 01:03:19;;;;;;;5.05;2.55;;;;;;;;;;5023764;28;22393;-79
2023/01/28 01:05:45;;;;;;;6.85;1.58;;;;;;;;;;5027807;28;20044;-77
2023/01/28 01:08:11;;;;;;;12.77;3.22;;;;;;;;;;5016896;28;20045;-79
2023/01/28 01:10:38;;;;;;;4.53;2.10;;;;;;;;;;5024897;28;20033;-79
2023/01/28 01:13:07;;;;;;;6.35;2.50;;;;;;;;;;5030820;28;20041;-79
2023/01/28 01:15:33;;;;;;;3.78;1.80;;;;;;;;;;5022620;28;20543;-81
2023/01/28 01:18:00;;;;;;;4.80;1.98;;;;;;;;;;5025367;28;20113;-80
2023/01/28 01:20:27;;;;;;;4.32;1.55;;;;;;;;;;5025005;28;20030;-79
2023/01/28 01:22:53;;;;;;;5.93;3.17;;;;;;;;;;5016589;28;20079;-80
2023/01/28 01:25:19;;;;;;;7.10;2.28;;;;;;;;;;5024801;28;20168;-79
2023/01/28 01:27:47;;;;;;;4.25;2.00;;;;;;;;;;5024211;28;20049;-80
2023/01/28 01:30:13;;;;;;;5.25;2.00;;;;;;;;;;5025775;28;20053;-79
2023/01/28 01:32:39;;;;;;;6.03;2.47;;;;;;;;;;5021335;28;20021;-79
2023/01/28 01:35:06;;;;;;;4.68;2.15;;;;;;;;;;5027182;28;20075;-79
2023/01/28 01:37:32;;;;;;;9.40;2.85;;;;;;;;;;5021192;28;20072;-78
2023/01/28 01:40:00;;;;;;;3.88;2.13;;;;;;;;;;5027718;28;20054;-80
2023/01/28 01:42:26;;;;;;;7.40;2.88;;;;;;;;;;5025730;28;20025;-79
2023/01/28 01:44:58;;;;;;;8.18;3.35;;;;;;;;;;5031562;28;20036;-79
2023/01/28 01:47:43;;;;;;;2.60;1.88;;;;;;;;;;5020408;28;20045;-77
2023/01/28 01:50:14;;;;;;;3.03;1.45;;;;;;;;;;5025347;28;20487;-78
2023/01/28 01:52:40;;;;;;;5.95;1.48;;;;;;;;;;5028995;28;20029;-80
2023/01/28 01:55:09;;;;;;;5.00;1.77;;;;;;;;;;5030357;28;20038;-79
2023/01/28 01:57:36;;;;;;;4.68;1.65;;;;;;;;;;5032218;28;20022;-78
2023/01/28 02:00:05;;;;;;;4.28;1.52;;;;;;;;;;5036943;28;20052;-80
2023/01/28 02:02:36;;;;;;;2.90;1.27;;;;;;;;;;5028849;28;20048;-78
2023/01/28 02:05:03;;;;;;;2.50;1.17;;;;;;;;;;5023224;28;20036;-77
2023/01/28 02:07:29;;;;;;;3.00;1.90;;;;;;;;;;5034936;28;20033;-79
2023/01/28 02:09:55;;;;;;;6.55;2.03;;;;;;;;;;5029475;28;20048;-78
2023/01/28 02:12:26;;;;;;;9.35;2.75;;;0.90;99.90;;;;;;5025832;28;20026;-78
2023/01/28 02:14:54;;;;;;;5.53;2.50;;;;;;;;;;5027667;28;20029;-78
2023/01/28 02:17:21;;;;;;;4.00;2.10;;;;;;;;;;5029649;28;20549;-79
2023/01/28 02:19:57;;;;;;;7.18;2.55;;;;;;;;;;5026491;28;21035;-80
2023/01/28 02:22:37;;;;;;;16.33;3.53;;;;;;;;;;5028695;28;20452;-78
2023/01/28 02:25:09;;;;;;;8.73;3.85;;;;;;;;;;5028566;28;20112;-77
2023/01/28 02:27:54;;;;;;;5.18;1.75;;;;;;;;;;5025804;28;20030;-79
2023/01/28 02:30:21;;;;;;;5.38;2.80;;;;;;;;;;5021317;28;20090;-78
2023/01/28 02:32:54;;;;;;;16.15;3.63;;;;;;;;;;5030170;28;20029;-78
2023/01/28 02:35:41;;;;;;;7.50;2.80;;;0.90;99.90;;;;;;5024254;28;20067;-79
2023/01/28 02:38:20;;;;;;;6.18;2.70;;;;;;;;;;5026344;28;20040;-78
2023/01/28 02:41:04;;;;;;;5.65;2.08;;;;;;;;;;5026978;28;20056;-79
2023/01/28 02:43:40;;;;;;;10.60;2.47;;;;;;;;;;5024695;28;20030;-79
2023/01/28 02:49:19;;;;;;;5.00;2.33;;;;;;;;;;5030213;28;20115;-79
2023/01/28 02:52:00;;;;;;;5.68;1.92;;;;;;;;;;5026434;28;20040;-80
2023/01/28 02:54:39;;;;;;;7.82;2.45;;;;;;;;;;5024807;28;20124;-78
2023/01/28 02:57:13;;;;;;;2.55;1.17;;;;;;;;;;5028371;28;20061;-77
2023/01/28 02:59:42;;;;;;;2.67;1.38;;;;;;;;;;5030652;28;20022;-80
2023/01/28 03:02:28;;;;;;;2.65;1.30;;;;;;;;;;5024077;28;20057;-78
2023/01/28 03:05:04;;;;;;;4.60;1.55;;;;;;;;;;5027691;28;20025;-80
2023/01/28 03:07:30;;;;;;;6.70;2.38;;;;;;;;;;5024283;28;22169;-79
2023/01/28 03:09:58;;;;;;;7.28;2.05;;;;;;;;;;5026945;28;20367;-80
2023/01/28 03:37:45;;;;;;;3.20;2.45;;;;;;;;;;5031629;28;20332;-80
2023/01/28 03:40:12;;;;;;;5.43;2.35;;;;;;;;;;5030330;28;20565;-79
2023/01/28 03:42:38;;;;;;;3.25;1.58;;;;;;;;;;5022175;28;20051;-77
2023/01/28 03:45:06;;;;;;;4.00;2.10;;;;;;;;;;5023152;28;20049;-78
2023/01/28 03:47:33;;;;;;;3.10;2.08;;;;;;;;;;5022917;28;20033;-77
2023/01/28 03:49:59;;;;;;;5.85;2.70;;;;;;;;;;5024169;28;20029;-79
2023/01/28 03:52:26;;;;;;;3.38;1.58;;;;;;;;;;5030636;28;20025;-79
2023/01/28 03:54:52;;;;;;;3.63;2.10;;;;;;;;;;5024010;28;20033;-79
2023/01/28 03:57:23;;;;;;;3.67;2.55;;;;;;;;;;5026872;28;20087;-80
2023/01/28 03:59:49;;;;;;;3.55;2.65;;;;;;;;;;5025879;28;20045;-79
2023/01/28 04:02:15;;;;;;;3.65;2.28;;;;;;;;;;5022910;28;20125;-77
2023/01/28 04:04:42;;;;;;;8.60;2.95;;;;;;;;;;5027771;28;20394;-78
2023/01/28 04:07:09;;;;;;;7.13;2.97;;;;;;;;;;5023708;28;20036;-80
2023/01/28 04:09:35;;;;;;;5.80;2.58;;;;;;;;;;5025701;28;20160;-79
2023/01/28 04:12:01;;;;;;;6.53;3.22;;;;;;;;;;5031026;28;20049;-78
2023/01/28 04:14:28;;;;;;;4.70;2.95;;;;;;;;;;5023481;28;20375;-80
2023/01/28 04:16:54;;;;;;;4.47;2.53;;;;;;;;;;5025145;28;20025;-78
2023/01/28 04:19:20;;;;;;;7.22;3.50;;;;;;;;;;5027255;28;20041;-77
2023/01/28 04:21:47;;;;;;;6.47;3.30;;;;;;;;;;5025164;28;20037;-78
2023/01/28 04:24:13;;;;;;;6.60;2.92;;;;;;;;;;5027736;28;20018;-79
2023/01/28 04:26:39;;;;;;;7.47;2.80;;;;;;;;;;5025788;28;20037;-79
2023/01/28 04:29:05;;;;;;;9.32;3.53;;;;;;;;;;5022442;28;20030;-78
2023/01/28 04:31:31;;;;;;;6.28;3.55;;;;;;;;;;5021625;28;20029;-78
2023/01/28 04:33:57;;;;;;;6.18;2.85;;;;;;;;;;5020510;28;20053;-78
2023/01/28 04:36:24;;;;;;;4.55;2.83;;;;;;;;;;5023067;28;20049;-78
2023/01/28 04:38:50;;;;;;;9.05;3.30;;;;;;;;;;5024280;28;20013;-78
2023/01/28 04:41:16;;;;;;;6.32;3.78;;;;;;;;;;5022971;28;20119;-80
2023/01/28 04:43:42;;;;;;;6.40;3.08;;;;;;;;;;5022877;28;20030;-79
2023/01/28 04:46:08;;;;;;;7.05;3.78;;;;;;;;;;5019689;28;20041;-77
2023/01/28 04:48:35;;;;;;;5.10;2.72;;;;;;;;;;5025522;28;20493;-79
2023/01/28 04:51:01;;;;;;;4.82;2.45;;;;;;;;;;5025925;28;20766;-77
2023/01/28 04:53:27;;;;;;;7.20;3.28;;;;;;;;;;5023656;28;20501;-78
2023/01/28 04:55:53;;;;;;;6.28;3.30;;;;;;;;;;5023278;28;20075;-79
2023/01/28 04:58:19;;;;;;;7.72;4.35;;;;;;;;;;5025386;28;20038;-80
2023/01/28 05:00:45;;;;;;;6.72;3.42;;;;;;;;;;5023227;28;20033;-77
2023/01/28 05:03:11;;;;;;;4.07;3.00;;;;;;;;;;5012877;28;20108;-79
2023/01/28 05:05:37;;;;;;;2.97;2.35;;;;;;;;;;5022828;28;20417;-79
2023/01/28 05:08:03;;;;;;;8.25;4.05;;;;;;;;;;5021877;28;20029;-78
2023/01/28 05:10:29;;;;;;;4.07;2.67;;;;;;;;;;5025118;28;20060;-77
2023/01/28 05:12:55;;;;;;;6.35;3.90;;;;;;;;;;5024382;28;20029;-78
2023/01/28 05:15:20;;;;;;;4.40;2.53;;;;;;;;;;5020148;28;20026;-78
2023/01/28 05:17:47;;;;;;;5.72;3.42;;;;;;;;;;5019194;28;20034;-77
2023/01/28 05:20:13;;;;;;;5.53;2.70;;;;;;;;;;5024336;28;20041;-80
2023/01/28 05:22:39;;;;;;;8.30;4.13;;;;;;;;;;5024663;28;20621;-80
2023/01/28 05:25:06;;;;;;;7.70;4.15;;;;;;;;;;5024057;28;20076;-78
2023/01/28 05:27:32;;;;;;;7.20;3.67;;;;;;;;;;5026272;28;20025;-78
2023/01/28 05:29:59;;;;;;;8.30;3.05;;;;;;;;;;5024404;28;20021;-79
2023/01/28 05:32:25;;;;;;;6.60;3.55;;;;;;;;;;5011475;28;20681;-78
2023/01/28 05:34:51;;;;;;;8.05;3.25;;;;;;;;;;5018414;28;20044;-77
2023/01/28 05:37:17;;;;;;;4.70;3.00;;;;;;;;;;5024380;28;20555;-80
2023/01/28 05:39:43;;;;;;;6.65;3.67;;;;;;;;;;5024498;28;20366;-80
2023/01/28 05:42:09;;;;;;;6.93;3.22;;;;;;;;;;5019155;28;20033;-79
2023/01/28 05:44:36;;;;;;;5.60;3.65;;;;;;;;;;5024133;28;20036;-77
2023/01/28 05:47:02;;;;;;;5.82;2.90;;;;;;;;;;5020636;28;20030;-79
2023/01/28 05:49:28;;;;;;;6.72;3.67;;;;;;;;;;5024147;28;20410;-78
2023/01/28 05:51:55;;;;;;;7.28;3.60;;;;;;;;;;5013892;28;20532;-77
2023/01/28 05:54:21;;;;;;;5.93;2.88;;;;;;;;;;5026305;28;20564;-79
2023/01/28 05:56:47;;;;;;;7.18;4.07;;;;;;;;;;5017470;28;20030;-78
2023/01/28 05:59:13;;;;;;;9.02;4.28;;;;;;;;;;5022825;28;20033;-80
2023/01/28 06:01:39;;;;;;;9.23;4.05;;;;;;;;;;5016211;28;20079;-80
2023/01/28 06:04:05;;;;;;;9.90;4.00;;;;;;;;;;5021663;28;20105;-78
2023/01/28 06:06:31;;;;;;;6.85;2.83;;;;;;;;;;5024587;28;20101;-77
2023/01/28 06:08:57;;;;;;;8.32;3.35;;;;;;;;;;5025406;28;20029;-79
2023/01/28 06:11:23;;;;;;;10.93;3.38;;;;;;;;;;5029435;28;20036;-79
2023/01/28 06:13:49;;;;;;;7.88;3.65;;;;;;;;;;5020828;28;20056;-79
2023/01/28 06:16:15;;;;;;;5.38;3.20;;;;;;;;;;5020659;28;20041;-79
2023/01/28 06:18:41;;;;;;;4.53;2.63;;;;;;;;;;5018388;28;20026;-77
2023/01/28 06:21:07;;;;;;;5.75;2.70;;;;;;;;;;5022349;28;20150;-80
2023/01/28 06:23:33;;;;;;;8.85;3.92;;;;;;;;;;5024265;28;20029;-79
2023/01/28 06:25:59;;;;;;;7.43;4.50;;;1.90;99.90;;;;;;5024163;28;20021;-79
2023/01/28 06:28:25;;;;;;;7.88;4.53;;;;;;;;;;5021431;28;20564;-79
2023/01/28 06:30:51;;;;;;;7.55;4.40;;;;;;;;;;5014290;28;20113;-78
2023/01/28 06:33:18;;;;;;;5.57;3.35;;;;;;;;;;5031227;28;20033;-79
2023/01/28 06:35:44;;;;;;;7.93;4.10;;;;;;;;;;5022630;28;20432;-78
2023/01/28 06:38:10;;;;;;;7.63;4.03;;;;;;;;;;5012159;28;20082;-76
2023/01/28 06:40:36;;;;;;;4.90;3.17;;;;;;;;;;5012447;28;20537;-79
2023/01/28 06:43:02;;;;;;;6.47;2.53;;;;;;;;;;5018880;28;20064;-78
2023/01/28 06:45:28;;;;;;;9.57;4.45;;;;;;;;;;5034212;28;20029;-79
2023/01/28 06:47:54;;;;;;;10.68;4.75;;;;;;;;;;5030933;28;20116;-79
2023/01/28 06:50:20;;;;;;;8.23;3.38;;;;;;;;;;5021716;28;20033;-78
2023/01/28 06:52:46;;;;;;;9.55;5.13;;;;;;;;;;5020508;28;20025;-77
2023/01/28 06:55:12;;;;;;;10.32;3.92;;;;;;;;;;5022001;28;20043;-78
2023/01/28 06:57:38;;;;;;;7.72;3.25;;;;;;;;;;5025291;28;20249;-80
2023/01/28 07:00:05;;;;;;;7.97;3.80;;;;;;;;;;5020598;28;20059;-78
2023/01/28 07:02:31;;;;;;;11.18;4.00;;;;;;;;;;5031983;28;20034;-80
2023/01/28 07:04:57;;;;;;;8.20;3.78;;;;;;;;;;5033578;28;20032;-79
2023/01/28 07:07:23;;;;;;;7.05;3.22;;;;;;;;;;5013748;28;20128;-78
2023/01/28 07:09:49;;;;;;;8.65;4.13;;;;;;;;;;5009381;28;20139;-80
2023/01/28 07:12:15;;;;;;;9.48;4.93;;;;;;;;;;5020073;28;20073;-80
2023/01/28 07:14:41;;;;;;;9.50;4.18;;;;;;;;;;5019133;28;20378;-81
2023/01/28 07:17:07;;;;;;;10.10;4.93;;;;;;;;;;5032201;28;20029;-80
2023/01/28 07:19:34;;;;;;;8.10;4.18;;;;;;;;;;5032403;28;20105;-79
2023/01/28 07:22:01;;;;;;;9.95;4.50;;;;;;;;;;5023571;28;20105;-80
2023/01/28 07:24:28;;;;;;;6.60;3.75;;;;;;;;;;5024223;28;20041;-78
2023/01/28 07:26:54;;;;;;;9.05;4.07;;;;;;;;;;5022435;28;20029;-79
2023/01/28 07:29:20;;;;;;;11.30;5.88;;;;;;;;;;5018813;28;20136;-79
2023/01/28 07:31:46;;;;;;;13.57;6.20;;;;;;;;;;5021480;28;20133;-79
2023/01/28 07:34:12;;;;;;;13.57;5.15;;;;;;;;;;5020203;28;20056;-79
2023/01/28 07:36:38;;;;;;;10.50;4.13;;;;;;;;;;5016472;28;23082;-80
2023/01/28 07:39:04;;;;;;;14.27;4.68;;;;;;;;;;5017945;28;20056;-80
2023/01/28 07:41:30;;;;;;;6.32;3.22;;;;;;;;;;5017100;28;20069;-78
2023/01/28 07:43:56;;;;;;;7.15;3.75;;;;;;;;;;5023452;28;20036;-81
2023/01/28 07:46:22;;;;;;;9.63;3.50;;;;;;;;;;5021581;28;20033;-80
2023/01/28 07:48:47;;;;;;;8.18;4.15;;;1.80;99.90;;;;;;5026833;28;20041;-81
2023/01/28 07:51:13;;;;;;;6.90;3.85;;;;;;;;;;5028937;28;20036;-79
2023/01/28 07:53:39;;;;;;;10.20;4.50;;;;;;;;;;5028666;28;20489;-80
2023/01/28 07:56:05;;;;;;;7.97;3.88;;;;;;;;;;5025664;28;20117;-80
2023/01/28 07:58:33;;;;;;;7.80;3.83;;;;;;;;;;5016324;28;20674;-79
2023/01/28 08:00:59;;;;;;;8.60;3.42;;;;;;;;;;5019380;28;20045;-80
2023/01/28 08:03:26;;;;;;;7.65;4.18;;;;;;;;;;5024540;28;20029;-80
2023/01/28 08:05:53;;;;;;;10.38;4.00;;;;;;;;;;5020519;28;20060;-80
2023/01/28 08:08:20;;;;;;;6.30;3.28;;;;;;;;;;5027637;28;20044;-80
2023/01/28 08:10:45;;;;;;;11.23;4.65;;;;;;;;;;5027612;28;20033;-80
2023/01/28 08:13:12;;;;;;;11.85;4.82;;;;;;;;;;5027688;28;20048;-79
2023/01/28 08:15:38;;;;;;;8.63;3.25;;;;;;;;;;5022876;28;20040;-80
2023/01/28 08:18:05;;;;;;;6.88;3.45;;;;;;;;;;5023578;28;20515;-81
2023/01/28 08:20:31;;;;;;;8.23;3.80;;;2.10;99.90;;;;;;5024000;28;20049;-79
2023/01/28 08:23:04;;;;;;;9.40;4.40;;;;;;;;;;5026078;28;20031;-79
2023/01/28 08:25:30;;;;;;;13.88;5.35;;;;;;;;;;5025141;28;20084;-81
2023/01/28 08:27:56;;;;;;;10.30;5.32;;;;;;;;;;5025282;28;20037;-80
2023/01/28 08:30:22;;;;;;;6.97;4.07;;;;;;;;;;5021706;28;20093;-78
2023/01/28 08:32:48;;;;;;;11.25;4.88;;;;;;;;;;5022126;28;20034;-79
2023/01/28 08:35:14;;;;;;;6.78;4.10;;;;;;;;;;5029814;28;20025;-81
2023/01/28 08:37:40;;;;;;;8.82;3.83;;;;;;;;;;5016386;28;20025;-80
2023/01/28 08:40:06;;;;;;;8.95;3.72;;;;;;;;;;5015471;28;20083;-77
2023/01/28 08:42:32;;;;;;;6.72;4.05;;;;;;;;;;5024001;28;20537;-79
2023/01/28 08:44:58;;;;;;;14.82;3.97;;;;;;;;;;5022800;28;20116;-79
2023/01/28 08:47:24;;;;;;;9.35;4.40;;;;;;;;;;5025134;28;20117;-79
2023/01/28 08:49:50;;;;;;;8.60;4.25;;;;;;;;;;5022177;28;20029;-78
2023/01/28 08:52:16;;;;;;;10.30;4.90;;;;;;;;;;5030016;28;20212;-79
2023/01/28 08:54:42;;;;;;;12.10;5.22;;;;;;;;;;5025519;28;20017;-78
2023/01/28 08:57:08;;;;;;;6.90;3.75;;;;;;;;;;5026561;28;20056;-79
2023/01/28 08:59:34;;;;;;;10.15;5.05;;;;;;;;;;5017236;28;20033;-79
2023/01/28 09:02:00;;;;;;;7.95;4.28;;;;;;;;;;5023563;28;20722;-79
2023/01/28 09:04:25;;;;;;;7.60;3.97;;;1.80;99.90;;;;;;5024885;28;20110;-78
2023/01/28 09:06:51;;;;;;;7.30;4.25;;;;;;;;;;5021565;28;20457;-78
2023/01/28 09:09:17;;;;;;;8.98;4.63;;;;;;;;;;5017927;28;20030;-79
2023/01/28 09:11:43;;;;;;;6.57;3.05;;;;;;;;;;5016764;28;20033;-77
2023/01/28 09:14:09;;;;;;;8.15;3.90;;;;;;;;;;5016679;28;20100;-79
2023/01/28 09:16:35;;;;;;;13.18;6.40;;;;;;;;;;5020315;28;20108;-81
2023/01/28 09:19:01;;;;;;;17.38;7.78;;;;;;;;;;5019791;28;20034;-78
2023/01/28 09:21:27;;;;;;;8.77;3.85;;;;;;;;;;5022338;28;20083;-78
2023/01/28 09:23:54;;;;;;;9.60;4.97;;;;;;;;;;5025061;28;20112;-79
2023/01/28 09:26:20;;;;;;;5.78;3.25;;;;;;;;;;5025212;28;20557;-80
2023/01/28 09:28:47;;;;;;;5.80;2.90;;;;;;;;;;5024430;28;20052;-79
2023/01/28 09:31:13;;;;;;;7.70;3.97;;;;;;;;;;5015775;28;20090;-79
2023/01/28 09:33:40;;;;;;;7.38;3.25;;;;;;;;;;5026812;28;20085;-78
2023/01/28 09:36:07;;;;;;;7.45;3.70;;;;;;;;;;5024116;28;20386;-78
2023/01/28 09:38:36;;;;;;;3.42;2.20;;;;;;;;;;5022688;28;20617;-79
2023/01/28 09:41:03;;;;;;;10.27;3.50;;;;;;;;;;5019913;28;21066;-78
2023/01/28 09:43:41;;;;;;;8.00;3.63;;;;;;;;;;5027396;28;20497;-78
2023/01/28 09:46:11;;;;;;;4.63;2.70;;;;;;;;;;5024221;28;20099;-79
2023/01/28 09:48:40;;;;;;;4.80;2.40;;;;;;;;;;5022118;28;20056;-78
2023/01/28 09:51:12;;;;;;;5.70;2.65;;;;;;;;;;5025820;28;20029;-79
2023/01/28 09:53:41;;;;;;;5.03;3.13;;;;;;;;;;5019801;28;20037;-78
2023/01/28 09:56:11;;;;;;;6.95;3.53;;;;;;;;;;5020612;28;20036;-79
2023/01/28 09:58:37;;;;;;;5.07;2.63;;;;;;;;;;5021930;28;20037;-78
2023/01/28 10:01:28;;;;;;;10.32;3.80;;;;;;;;;;5020172;28;20037;-78
2023/01/28 10:04:11;;;;;;;6.53;3.30;;;;;;;;;;5024565;28;20033;-79
2023/01/28 10:06:40;;;;;;;5.93;3.72;;;;;;;;;;5026419;28;20026;-80
2023/01/28 10:09:06;;;;;;;13.75;6.28;;;;;;;;;;5022647;28;20043;-78
2023/01/28 10:11:44;;;;;;;4.97;3.20;;;;;;;;;;5018875;28;20033;-76
2023/01/28 10:14:17;;;;;;;7.00;2.95;;;;;;;;;;5023270;28;20040;-79
2023/01/28 10:16:50;;;;;;;7.28;3.35;;;;;;;;;;5023916;28;20032;-79
2023/01/28 10:19:26;;;;;;;7.20;4.43;;;;;;;;;;5030282;28;20033;-78
2023/01/28 10:21:55;;;;;;;11.07;5.35;;;;;;;;;;5033370;28;20060;-79
2023/01/28 10:24:29;;;;;;;5.57;3.33;;;;;;;;;;5027603;28;20395;-81
2023/01/28 10:26:55;;;;;;;6.03;3.03;;;;;;;;;;5019803;28;20029;-78
2023/01/28 10:29:23;;;;;;;6.40;3.50;;;;;;;;;;5025231;28;20068;-79
2023/01/28 10:31:54;;;;;;;5.80;3.38;;;;;;;;;;5018322;28;20036;-79
2023/01/28 10:34:21;;;;;;;6.38;3.45;;;;;;;;;;5024780;28;20552;-79
2023/01/28 10:36:47;;;;;;;6.97;2.85;;;;;;;;;;5016862;28;20931;-80
2023/01/28 10:39:17;;;;;;;4.88;2.58;;;;;;;;;;5029479;28;20049;-80
2023/01/28 10:41:43;;;;;;;6.45;2.78;;;;;;;;;;5020953;28;20037;-79
2023/01/28 10:44:15;;;;;;;5.03;2.25;;;;;;;;;;5016607;28;20026;-79
2023/01/28 10:46:45;;;;;;;5.03;2.40;;;;;;;;;;5017638;28;20061;-80
2023/01/28 10:49:21;;;;;;;4.78;2.63;;;;;;;;;;5019133;28;20061;-79
2023/01/28 10:51:47;;;;;;;4.03;2.88;;;;;;;;;;5025280;28;20121;-81
2023/01/28 10:54:22;;;;;;;5.38;2.90;;;2.40;99.90;;;;;;5030565;28;20052;-79
2023/01/28 10:57:00;;;;;;;5.07;2.30;;;;;;;;;;5029847;28;20059;-80
2023/01/28 10:59:40;;;;;;;10.93;2.70;;;;;;;;;;5027828;28;20038;-80
2023/01/28 11:02:22;;;;;;;4.28;2.50;;;;;;;;;;5027023;28;20044;-79
2023/01/28 11:04:48;;;;;;;7.20;2.28;;;;;;;;;;5029804;28;20029;-80
2023/01/28 11:07:18;;;;;;;5.40;2.40;;;;;;;;;;5023270;28;20116;-80
2023/01/28 11:09:46;;;;;;;4.03;2.72;;;3.50;99.90;;;;;;5023702;28;20034;-81
2023/01/28 11:12:13;;;;;;;3.70;1.98;;;;;;;;;;5022849;28;20061;-81
2023/01/28 11:14:43;;;;;;;5.38;2.35;;;;;;;;;;5027964;28;20060;-80
2023/01/28 11:17:15;;;;;;;5.95;3.28;;;;;;;;;;5023491;28;20478;-80
2023/01/28 11:19:41;;;;;;;3.78;2.60;;;;;;;;;;5017302;28;20036;-79
2023/01/28 11:22:20;;;;;;;6.18;2.60;;;;;;;;;;5023717;28;20100;-79
2023/01/28 11:24:45;;;;;;;8.32;2.63;;;;;;;;;;5018019;28;20095;-78
2023/01/28 11:27:15;;;;;;;2.53;1.75;;;;;;;;;;5023972;28;20041;-80
2023/01/28 11:29:41;;;;;;;4.75;3.17;;;;;;;;;;5027397;28;20037;-78
2023/01/28 11:32:21;;;;;;;4.57;2.80;;;;;;;;;;5018994;28;20430;-79
2023/01/28 11:34:50;;;;;;;4.20;2.10;;;;;;;;;;5026040;28;20034;-80
2023/01/28 11:37:17;;;;;;;9.25;2.15;;;;;;;;;;5022067;28;20034;-78
2023/01/28 11:39:43;;;;;;;3.13;1.88;;;;;;;;;;5022821;28;20029;-81
2023/01/28 11:42:16;;;;;;;5.60;2.30;;;;;;;;;;5018302;28;20713;-80
2023/01/28 11:44:42;;;;;;;2.97;1.80;;;;;;;;;;5026987;28;20029;-79
2023/01/28 11:47:11;;;;;;;2.95;1.75;;;;;;;;;;5019496;28;20565;-79
2023/01/28 11:49:37;;;;;;;5.47;1.88;;;;;;;;;;5016189;28;20164;-79
2023/01/28 11:52:13;;;;;;;5.97;3.10;;;;;;;;;;5019545;28;20052;-79
2023/01/28 11:54:38;;;;;;;4.15;2.17;;;;;;;;;;5024873;28;20045;-77
2023/01/28 11:57:11;;;;;;;8.45;3.50;;;;;;;;;;5027915;28;20109;-79
2023/01/28 11:59:46;;;;;;;7.90;4.70;;;;;;;;;;5021351;28;20051;-80
2023/01/28 12:02:15;;;;;;;7.65;5.38;;;;;;;;;;5024318;28;20397;-80
2023/01/28 12:04:57;;;;;;;9.75;6.72;;;;;;;;;;5029476;28;20041;-78
2023/01/28 12:07:32;;;;;;;5.10;2.97;;;;;;;;;;5024594;28;20132;-79
2023/01/28 12:10:07;;;;;;;6.43;3.20;;;;;;;;;;5018202;28;20053;-78
2023/01/28 12:12:49;;;;;;;7.57;4.20;;;;;;;;;;5026451;28;20021;-80
2023/01/28 12:15:20;;;;;;;6.05;2.67;;;;;;;;;;5019408;28;20029;-78
2023/01/28 12:17:57;;;;;;;5.15;2.22;;;;;;;;;;5013768;28;20145;-77
2023/01/28 12:20:33;;;;;;;2.22;1.45;;;;;;;;;;5024139;28;20038;-78
2023/01/28 12:23:16;;;;;;;3.38;1.77;;;;;;;;;;5030972;28;20053;-78
2023/01/28 12:25:45;;;;;;;;;;;;;;;;;;5032759;28;20548;-78
2023/01/28 12:28:31;;;;;;;10.18;2.47;;;;;;;;;;5019986;28;19909;-78
2023/01/28 12:31:00;;;;;;;2.75;1.80;;;;;;;;;;5011321;28;20437;-79
2023/01/28 12:33:28;;;;;;;3.13;1.48;;;;;;;;;;5025418;28;20037;-78
2023/01/28 12:36:13;;;;;;;2.80;1.83;;;;;;;;;;5017036;28;20103;-79
2023/01/28 12:38:42;;;;;;;3.40;2.13;;;;;;;;;;5022090;28;20033;-79
2023/01/28 12:41:13;;;;;;;2.92;1.75;;;;;;;;;;5022169;28;20084;-79
2023/01/28 12:43:48;;;;;;;3.60;1.83;;;;;;;;;;5023342;28;20548;-79
2023/01/28 12:46:33;;;;;;;2.83;1.30;;;;;;;;;;5032843;28;20497;-79
2023/01/28 12:49:03;;;;;;;2.28;1.15;;;;;;;;;;5031002;28;20032;-78
2023/01/28 12:51:33;;;;;;;3.78;2.08;;;;;;;;;;5027847;28;20043;-80
2023/01/28 12:54:02;;;;;;;2.35;1.55;;;;;;;;;;5018738;28;20033;-80
2023/01/28 12:56:34;;;;;;;2.10;1.30;;;;;;;;;;5026394;28;20075;-79
2023/01/28 12:59:15;;;;;;;5.40;1.85;;;3.00;99.90;;;;;;5023762;28;20583;-79
2023/01/28 13:01:44;;;;;;;4.25;2.20;;;;;;;;;;5024450;28;20276;-79
2023/01/28 13:04:15;;;;;;;5.88;1.52;;;;;;;;;;5022627;28;20026;-78
2023/01/28 13:06:43;;;;;;;2.92;1.27;;;;;;;;;;5021992;28;20032;-80
2023/01/28 13:09:20;;;;;;;3.70;2.03;;;;;;;;;;5022904;28;20018;-79
2023/01/28 13:11:48;;;;;;;10.65;2.22;;;3.80;99.90;;;;;;5027296;28;20033;-79
2023/01/28 13:14:14;;;;;;;2.50;1.30;;;;;;;;;;5025964;28;20021;-79
2023/01/28 13:16:40;;;;;;;3.35;1.88;;;;;;;;;;5022676;28;20033;-79
2023/01/28 13:19:27;;;;;;;3.60;1.88;;;;;;;;;;5025894;28;20733;-79
2023/01/28 13:21:53;;;;;;;3.05;1.98;;;;;;;;;;5027130;28;20045;-78
2023/01/28 13:24:20;;;;;;;3.95;1.58;;;;;;;;;;5031028;28;20087;-79
2023/01/28 13:26:48;;;;;;;3.85;1.92;;;;;;;;;;5023224;28;20159;-80
2023/01/28 13:29:14;;;;;;;4.85;2.60;;;;;;;;;;5013825;28;20091;-78
2023/01/28 13:31:47;;;;;;;3.63;1.73;;;;;;;;;;5013797;28;20041;-79
2023/01/28 13:34:28;;;;;;;4.75;2.00;;;;;;;;;;5015963;28;20037;-79
2023/01/28 13:36:55;;;;;;;3.83;1.77;;;;;;;;;;5019322;28;20072;-78
2023/01/28 13:39:23;;;;;;;6.20;3.78;;;3.70;99.90;;;;;;5023904;28;20025;-79
2023/01/28 13:41:51;;;;;;;3.78;2.80;;;;;;;;;;5025501;28;21923;-78
2023/01/28 13:44:17;;;;;;;3.13;1.48;;;;;;;;;;5026887;28;20037;-78
2023/01/28 13:46:44;;;;;;;3.22;2.00;;;;;;;;;;5028667;28;20028;-78
2023/01/28 13:49:15;;;;;;;3.92;2.10;;;;;;;;;;5026597;28;20049;-78
2023/01/28 13:51:44;;;;;;;4.00;2.00;;;;;;;;;;5026229;28;20048;-79
2023/01/28 13:54:14;;;;;;;2.22;1.70;;;;;;;;;;5034049;28;20022;-78
2023/01/28 13:56:59;;;;;;;3.60;2.42;;;3.80;99.90;;;;;;5037893;28;21718;-80
2023/01/28 13:59:37;;;;;;;3.97;2.55;;;;;;;;;;5033823;28;20036;-78
2023/01/28 14:02:06;;;;;;;6.65;2.50;;;;;;;;;;5024150;28;20033;-78
2023/01/28 14:04:58;;;;;;;2.70;1.58;;;3.80;99.90;;;;;;5034399;28;20079;-79
2023/01/28 14:07:43;;;;;;;3.08;1.52;;;;;;;;;;5026529;28;20033;-78
2023/01/28 14:10:12;;;;;;;3.35;1.60;;;;;;;;;;5034093;28;20029;-78
2023/01/28 14:12:45;;;;;;;2.55;1.58;;;;;;;;;;5027087;28;20421;-79
2023/01/28 14:15:11;;;;;;;;;;;;;;;;;;5030058;28;20079;-78
2023/01/28 14:17:40;;;;;;;4.13;1.92;;;;;;;;;;5030473;28;19913;-78
2023/01/28 14:20:13;;;;;;;7.18;3.90;;;;;;;;;;5033389;28;20052;-78
2023/01/28 14:22:41;;;;;;;6.00;3.63;;;;;;;;;;5034575;28;20394;-78
2023/01/28 14:25:13;;;;;;;9.90;5.90;;;3.50;99.90;;;;;;5030741;28;20033;-78
2023/01/28 14:27:41;;;;;;;5.57;2.38;;;;;;;;;;5026827;28;20026;-77
2023/01/28 14:30:13;;;;;;;3.78;2.33;;;;;;;;;;5032570;28;20021;-78
2023/01/28 14:32:45;;;;;;;2.83;2.13;;;;;;;;;;5028362;28;20518;-79
2023/01/28 14:35:16;;;;;;;3.55;2.17;;;;;;;;;;5034071;28;20232;-78
2023/01/28 14:37:42;;;;;;;5.82;2.80;;;;;;;;;;5025058;28;20034;-78
2023/01/28 14:40:12;;;;;;;3.95;2.63;;;;;;;;;;5033322;28;20399;-77
2023/01/28 14:42:39;;;;;;;2.55;2.13;;;;;;;;;;5047652;28;20029;-77
2023/01/28 14:45:34;;;;;;;2.45;1.75;;;;;;;;;;5033727;28;20625;-78
2023/01/28 14:48:00;;;;;;;3.53;2.35;;;;;;;;;;5032340;28;20076;-79
2023/01/28 14:50:30;;;;;;;3.75;2.83;;;;;;;;;;5031473;28;20029;-76
2023/01/28 14:53:22;;;;;;;2.67;2.17;;;;;;;;;;5029848;28;20029;-78
2023/01/28 14:56:07;;;;;;;3.50;2.13;;;;;;;;;;5030844;28;20038;-78
2023/01/28 14:59:02;;;;;;;3.20;2.20;;;;;;;;;;5030717;28;20068;-77
2023/01/28 15:01:30;;;;;;;3.15;2.00;;;;;;;;;;5021860;28;20050;-79
2023/01/28 15:03:56;;;;;;;5.00;2.33;;;2.40;99.90;;;;;;5033637;28;20026;-78
2023/01/28 15:06:23;;;;;;;3.45;1.98;;;;;;;;;;5029282;28;20033;-79
2023/01/28 15:08:50;;;;;;;2.45;1.77;;;;;;;;;;5032381;28;20489;-78
2023/01/28 15:11:19;;;;;;;4.57;1.80;;;;;;;;;;5034255;28;20055;-78
2023/01/28 15:13:47;;;;;;;3.35;1.75;;;;;;;;;;5034422;28;20128;-78
2023/01/28 15:16:17;;;;;;;3.83;1.67;;;;;;;;;;5026376;28;20033;-78